createdAt,value
2023-02-16T00:01:57.813Z,101460.44
2023-02-16T00:04:30.388Z,101458.62
2023-02-16T00:06:59.286Z,101442.53
2023-02-16T00:09:26.910Z,101450.37
2023-02-16T00:12:12.346Z,101447.84
2023-02-16T00:14:40.975Z,101446.56
2023-02-16T00:17:13.038Z,101447.84
2023-02-16T00:19:42.850Z,101453.44
2023-02-16T00:22:12.239Z,101451.34
2023-02-16T00:24:39.878Z,101452.88
2023-02-16T00:27:16.483Z,101447.56
2023-02-16T00:29:45.875Z,101447.25
2023-02-16T00:32:14.791Z,101447.41
2023-02-16T00:34:43.138Z,101437.75
2023-02-16T00:37:13.628Z,101446.41
2023-02-16T00:39:42.812Z,101435.34
2023-02-16T00:42:18.899Z,101434.38
2023-02-16T00:44:53.148Z,101430.28
2023-02-16T00:47:20.723Z,101434.38
2023-02-16T00:49:50.084Z,101438.00
2023-02-16T00:52:39.071Z,101430.88
2023-02-16T00:55:13.545Z,101426.50
2023-02-16T00:58:04.137Z,101426.97
2023-02-16T01:00:39.069Z,101424.88
2023-02-16T01:03:09.867Z,101421.38
2023-02-16T01:05:39.875Z,101419.97
2023-02-16T01:08:36.544Z,101422.06
2023-02-16T01:11:10.205Z,101422.06
2023-02-16T01:13:48.548Z,101418.94
2023-02-16T01:16:22.951Z,101417.53
2023-02-16T01:18:54.399Z,101417.78
2023-02-16T01:21:22.344Z,101417.78
2023-02-16T01:23:50.159Z,101416.81
2023-02-16T01:26:20.374Z,101410.66
2023-02-16T01:28:48.824Z,101405.19
2023-02-16T01:31:19.092Z,101415.53
2023-02-16T01:33:46.763Z,101407.00
2023-02-16T01:36:23.527Z,101400.28
2023-02-16T01:38:51.430Z,101409.31
2023-02-16T01:41:30.993Z,101404.84
2023-02-16T01:44:04.243Z,101397.59
2023-02-16T01:46:39.914Z,101399.66
2023-02-16T01:49:16.556Z,101389.50
2023-02-16T01:51:57.012Z,101395.09
2023-02-16T01:54:30.523Z,101394.75
2023-02-16T01:57:06.686Z,101389.44
2023-02-16T01:59:52.318Z,101396.44
2023-02-16T02:02:22.894Z,101395.03
2023-02-16T02:05:24.840Z,101391.53
2023-02-16T02:08:01.064Z,101381.34
2023-02-16T02:10:38.147Z,101373.63
2023-02-16T02:13:23.869Z,101381.03
2023-02-16T02:15:51.601Z,101374.88
2023-02-16T02:18:19.393Z,101365.91
2023-02-16T02:21:42.550Z,101369.69
2023-02-16T02:24:10.098Z,101357.25
2023-02-16T02:26:59.550Z,101365.34
2023-02-16T02:29:45.673Z,101362.00
2023-02-16T02:32:13.377Z,101356.81
2023-02-16T02:35:00.973Z,101364.34
2023-02-16T02:37:54.767Z,101364.50
2023-02-16T02:40:57.491Z,101356.66
2023-02-16T02:43:45.288Z,101358.44
2023-02-16T02:46:31.718Z,101360.00
2023-02-16T02:48:59.502Z,101366.16
2023-02-16T02:51:29.884Z,101364.50
2023-02-16T02:54:14.708Z,101361.38
2023-02-16T02:57:23.349Z,101360.53
2023-02-16T03:00:18.961Z,101353.13
2023-02-16T03:02:49.715Z,101357.50
2023-02-16T03:05:20.026Z,101351.34
2023-02-16T03:07:51.028Z,101357.59
2023-02-16T03:10:48.306Z,101345.69
2023-02-16T03:13:29.359Z,101355.47
2023-02-16T03:16:02.942Z,101354.06
2023-02-16T03:18:49.934Z,101351.97
2023-02-16T03:21:35.392Z,101348.75
2023-02-16T03:24:24.526Z,101351.53
2023-02-16T03:27:11.746Z,101352.53
2023-02-16T03:29:40.704Z,101347.19
2023-02-16T03:32:08.714Z,101345.37
2023-02-16T03:34:38.948Z,101339.09
2023-02-16T03:37:07.155Z,101331.13
2023-02-16T03:39:58.103Z,101332.22
2023-02-16T03:42:28.174Z,101335.44
2023-02-16T03:44:58.555Z,101340.88
2023-02-16T03:47:26.188Z,101347.59
2023-02-16T03:49:53.788Z,101341.31
2023-02-16T03:52:21.398Z,101342.72
2023-02-16T03:54:49.093Z,101340.22
2023-02-16T03:57:17.017Z,101346.38
2023-02-16T03:59:45.449Z,101345.66
2023-02-16T04:02:13.146Z,101341.00
2023-02-16T04:04:40.821Z,101339.56
2023-02-16T04:07:08.425Z,101337.75
2023-02-16T04:09:38.491Z,101333.41
2023-02-16T04:12:24.203Z,101336.91
2023-02-16T04:14:51.811Z,101339.84
2023-02-16T04:17:19.383Z,101340.81
2023-02-16T04:19:46.984Z,101343.19
2023-02-16T04:22:14.748Z,101342.09
2023-02-16T04:24:42.361Z,101333.81
2023-02-16T04:27:12.081Z,101331.44
2023-02-16T04:29:41.089Z,101332.41
2023-02-16T04:32:08.806Z,101329.03
2023-02-16T04:34:36.619Z,101332.66
2023-02-16T04:37:04.391Z,101338.81
2023-02-16T04:39:32.215Z,101342.19
2023-02-16T04:41:59.989Z,101344.72
2023-02-16T04:44:27.684Z,101345.56
2023-02-16T04:46:55.334Z,101342.75
2023-02-16T04:49:23.171Z,101345.41
2023-02-16T04:51:50.807Z,101340.50
2023-02-16T04:54:21.261Z,101333.78
2023-02-16T04:56:50.369Z,101340.78
2023-02-16T04:59:19.176Z,101339.09
2023-02-16T05:01:46.983Z,101340.19
2023-02-16T05:04:14.591Z,101343.56
2023-02-16T05:06:42.295Z,101343.28
2023-02-16T05:09:10.360Z,101338.81
2023-02-16T05:11:55.723Z,101345.25
2023-02-16T05:14:46.033Z,101336.69
2023-02-16T05:17:28.187Z,101332.50
2023-02-16T05:19:58.804Z,101341.66
2023-02-16T05:22:28.628Z,101344.31
2023-02-16T05:24:56.226Z,101346.41
2023-02-16T05:27:28.188Z,101340.25
2023-02-16T05:29:56.645Z,101332.28
2023-02-16T05:32:26.711Z,101326.72
2023-02-16T05:34:57.035Z,101336.62
2023-02-16T05:37:24.637Z,101329.63
2023-02-16T05:39:52.932Z,101327.09
2023-02-16T05:42:20.628Z,101327.94
2023-02-16T05:44:48.349Z,101341.09
2023-02-16T05:47:16.117Z,101345.44
2023-02-16T05:49:43.734Z,101334.22
2023-02-16T05:52:11.601Z,101333.53
2023-02-16T05:54:39.224Z,101340.53
2023-02-16T05:57:07.077Z,101333.41
2023-02-16T05:59:34.874Z,101335.06
2023-02-16T06:02:03.789Z,101338.13
2023-02-16T06:04:32.613Z,101325.56
2023-02-16T06:07:01.702Z,101320.81
2023-02-16T06:09:31.354Z,101323.22
2023-02-16T06:12:01.593Z,101319.50
2023-02-16T06:14:29.216Z,101324.41
2023-02-16T06:16:59.165Z,101317.28
2023-02-16T06:19:26.904Z,101327.09
2023-02-16T06:21:54.557Z,101329.22
2023-02-16T06:24:22.220Z,101331.59
2023-02-16T06:26:50.990Z,101332.78
2023-02-16T06:29:18.619Z,101335.06
2023-02-16T06:31:46.392Z,101337.91
2023-02-16T06:34:14.107Z,101331.91
2023-02-16T06:36:42.745Z,101334.31
2023-02-16T06:39:11.572Z,101329.88
2023-02-16T06:41:41.667Z,101332.41
2023-02-16T06:44:13.540Z,101332.56
2023-02-16T06:46:46.835Z,101331.31
2023-02-16T06:49:19.747Z,101326.44
2023-02-16T06:51:49.122Z,101331.47
2023-02-16T06:54:18.019Z,101335.81
2023-02-16T06:56:48.590Z,101332.72
2023-02-16T06:59:16.299Z,101326.00
2023-02-16T07:01:45.524Z,101323.69
2023-02-16T07:04:13.725Z,101319.47
2023-02-16T07:06:41.386Z,101323.69
2023-02-16T07:09:11.338Z,101323.50
2023-02-16T07:11:41.649Z,101319.44
2023-02-16T07:14:09.335Z,101313.16
2023-02-16T07:16:43.570Z,101315.69
2023-02-16T07:19:11.304Z,101313.16
2023-02-16T07:21:39.037Z,101325.37
2023-02-16T07:24:07.055Z,101325.16
2023-02-16T07:26:34.751Z,101318.72
2023-02-16T07:29:05.094Z,101322.09
2023-02-16T07:31:34.957Z,101323.03
2023-02-16T07:34:04.021Z,101324.03
2023-02-16T07:36:31.662Z,101317.38
2023-02-16T07:38:59.275Z,101307.38
2023-02-16T07:41:29.294Z,101313.75
2023-02-16T07:43:59.325Z,101307.44
2023-02-16T07:46:31.007Z,101311.25
2023-02-16T07:48:59.983Z,101305.50
2023-02-16T07:51:31.657Z,101303.72
2023-02-16T07:54:00.935Z,101312.19
2023-02-16T07:56:33.477Z,101306.75
2023-02-16T07:59:03.103Z,101296.84
2023-02-16T08:01:32.640Z,101302.50
2023-02-16T08:04:00.228Z,101308.25
2023-02-16T08:06:32.645Z,101306.12
2023-02-16T08:09:00.571Z,101308.28
2023-02-16T08:11:28.820Z,101314.00
2023-02-16T08:13:59.507Z,101311.63
2023-02-16T08:16:30.563Z,101313.66
2023-02-16T08:19:03.545Z,101312.09
2023-02-16T08:21:39.118Z,101315.81
2023-02-16T08:24:08.851Z,101317.94
2023-02-16T08:26:40.965Z,101313.88
2023-02-16T08:29:13.168Z,101315.91
2023-02-16T08:31:42.079Z,101318.75
2023-02-16T08:34:10.643Z,101316.34
2023-02-16T08:36:44.543Z,101314.09
2023-02-16T08:39:20.838Z,101329.78
2023-02-16T08:41:52.191Z,101332.63
2023-02-16T08:44:21.657Z,101326.97
2023-02-16T08:46:50.433Z,101322.69
2023-02-16T08:49:20.166Z,101310.81
2023-02-16T08:51:56.861Z,101321.47
2023-02-16T08:54:30.572Z,101324.03
2023-02-16T08:57:00.023Z,101320.66
2023-02-16T08:59:29.138Z,101321.66
2023-02-16T09:01:59.213Z,101326.25
2023-02-16T09:04:29.182Z,101317.97
2023-02-16T09:07:00.987Z,101316.69
2023-02-16T09:09:29.069Z,101318.69
2023-02-16T09:11:57.724Z,101315.19
2023-02-16T09:14:25.383Z,101317.78
2023-02-16T09:16:53.075Z,101310.94
2023-02-16T09:19:22.585Z,101320.91
2023-02-16T09:21:52.057Z,101319.94
2023-02-16T09:24:24.235Z,101310.09
2023-02-16T09:26:54.621Z,101312.22
2023-02-16T09:29:24.091Z,101303.53
2023-02-16T09:31:53.370Z,101316.56
2023-02-16T09:34:23.511Z,101309.72
2023-02-16T09:36:51.635Z,101310.69
2023-02-16T09:39:19.908Z,101312.41
2023-02-16T09:41:55.204Z,101310.47
2023-02-16T09:44:50.669Z,101308.91
2023-02-16T09:47:31.038Z,101312.28
2023-02-16T09:50:06.400Z,101315.09
2023-02-16T09:52:46.268Z,101314.19
2023-02-16T09:55:20.864Z,101310.97
2023-02-16T09:57:58.728Z,101310.34
2023-02-16T10:00:35.774Z,101307.31
2023-02-16T10:03:23.646Z,101299.09
2023-02-16T10:05:52.062Z,101301.22
2023-02-16T10:08:31.386Z,101308.63
2023-02-16T10:11:31.698Z,101302.03
2023-02-16T10:14:06.326Z,101303.66
2023-02-16T10:16:43.166Z,101295.06
2023-02-16T10:19:21.718Z,101294.16
2023-02-16T10:21:57.836Z,101296.50
2023-02-16T10:24:29.068Z,101294.13
2023-02-16T10:27:08.601Z,101298.22
2023-02-16T10:29:38.677Z,101293.00
2023-02-16T10:32:29.325Z,101292.66
2023-02-16T10:34:59.689Z,101288.69
2023-02-16T10:38:00.793Z,101282.00
2023-02-16T10:40:42.259Z,101291.22
2023-02-16T10:43:29.809Z,101275.13
2023-02-16T10:46:01.838Z,101275.69
2023-02-16T10:48:29.983Z,101273.72
2023-02-16T10:51:12.734Z,101271.84
2023-02-16T10:54:00.341Z,101265.66
2023-02-16T10:56:42.806Z,101256.53
2023-02-16T10:59:41.959Z,101255.62
2023-02-16T11:02:32.685Z,101252.50
2023-02-16T11:05:01.864Z,101249.94
2023-02-16T11:07:31.549Z,101249.97
2023-02-16T11:10:01.978Z,101245.34
2023-02-16T11:12:37.441Z,101237.28
2023-02-16T11:15:27.589Z,101237.88
2023-02-16T11:18:05.869Z,101242.47
2023-02-16T11:20:35.076Z,101233.34
2023-02-16T11:23:33.127Z,101233.59
2023-02-16T11:26:14.463Z,101229.09
2023-02-16T11:28:46.557Z,101226.78
2023-02-16T11:31:23.463Z,101217.09
2023-02-16T11:34:25.350Z,101219.41
2023-02-16T11:36:53.279Z,101212.97
2023-02-16T11:39:33.909Z,101215.19
2023-02-16T11:42:06.967Z,101217.25
2023-02-16T11:44:47.023Z,101213.69
2023-02-16T11:47:23.610Z,101199.94
2023-02-16T11:50:18.942Z,101200.28
2023-02-16T11:52:55.237Z,101202.06
2023-02-16T11:55:33.451Z,101190.25
2023-02-16T11:58:25.241Z,101189.37
2023-02-16T12:01:21.406Z,101187.72
2023-02-16T12:04:38.329Z,101181.16
2023-02-16T12:07:15.641Z,101183.19
2023-02-16T12:10:13.394Z,101163.19
2023-02-16T12:12:47.245Z,101162.19
2023-02-16T12:15:36.662Z,101168.25
2023-02-16T12:18:33.379Z,101151.97
2023-02-16T12:21:32.197Z,101149.25
2023-02-16T12:24:09.413Z,101143.25
2023-02-16T12:26:54.977Z,101145.50
2023-02-16T12:29:28.715Z,101139.13
2023-02-16T12:32:18.128Z,101130.81
2023-02-16T12:35:03.675Z,101134.87
2023-02-16T12:37:59.517Z,101134.47
2023-02-16T12:40:30.225Z,101130.88
2023-02-16T12:43:40.519Z,101127.78
2023-02-16T12:46:32.715Z,101114.69
2023-02-16T12:49:24.429Z,101114.28
2023-02-16T12:51:58.984Z,101114.59
2023-02-16T12:54:40.819Z,101108.03
2023-02-16T12:57:11.990Z,101102.00
2023-02-16T12:59:47.104Z,101096.22
2023-02-16T13:02:31.205Z,101093.28
2023-02-16T13:05:08.706Z,101092.50
2023-02-16T13:08:17.589Z,101079.25
2023-02-16T13:11:04.598Z,101081.97
2023-02-16T13:13:37.854Z,101079.06
2023-02-16T13:16:30.998Z,101067.13
2023-02-16T13:19:01.877Z,101081.69
2023-02-16T13:21:51.773Z,101067.53
2023-02-16T13:24:39.605Z,101070.47
2023-02-16T13:27:13.411Z,101064.37
2023-02-16T13:30:05.723Z,101057.97
2023-02-16T13:32:39.326Z,101056.63
2023-02-16T13:35:12.827Z,101052.78
2023-02-16T13:38:02.179Z,101050.16
2023-02-16T13:40:39.167Z,101044.81
2023-02-16T13:43:19.432Z,101046.91
2023-02-16T13:45:54.575Z,101046.84
2023-02-16T13:48:33.765Z,101047.56
2023-02-16T13:51:25.574Z,101049.69
2023-02-16T13:53:59.986Z,101044.75
2023-02-16T13:56:39.776Z,101047.19
2023-02-16T13:59:19.691Z,101041.44
2023-02-16T14:01:49.313Z,101046.63
2023-02-16T14:04:23.195Z,101050.34
2023-02-16T14:06:53.212Z,101046.56
2023-02-16T14:09:21.278Z,101037.00
2023-02-16T14:11:52.984Z,101037.81
2023-02-16T14:14:39.465Z,101045.44
2023-02-16T14:17:15.991Z,101036.97
2023-02-16T14:20:02.465Z,101046.16
2023-02-16T14:22:57.476Z,101039.56
2023-02-16T14:25:27.492Z,101046.78
2023-02-16T14:28:05.462Z,101039.50
2023-02-16T14:30:36.734Z,101041.47
2023-02-16T14:33:11.833Z,101041.06
2023-02-16T14:35:45.258Z,101046.78
2023-02-16T14:38:31.559Z,101042.81
2023-02-16T14:41:00.256Z,101035.38
2023-02-16T14:43:44.407Z,101038.66
2023-02-16T14:46:11.995Z,101040.25
2023-02-16T14:49:06.564Z,101036.94
2023-02-16T14:51:46.943Z,101027.81
2023-02-16T14:54:30.441Z,101027.50
2023-02-16T14:57:06.999Z,101038.25
2023-02-16T14:59:55.625Z,101035.38
2023-02-16T15:02:41.858Z,101024.88
2023-02-16T15:05:17.766Z,101027.37
2023-02-16T15:07:52.226Z,101033.28
2023-02-16T15:10:27.217Z,101034.97
2023-02-16T15:12:56.889Z,101027.50
2023-02-16T15:15:41.738Z,101030.22
2023-02-16T15:18:16.956Z,101032.97
2023-02-16T15:20:46.961Z,101025.72
2023-02-16T15:23:21.530Z,101028.84
2023-02-16T15:26:19.563Z,101028.44
2023-02-16T15:29:03.529Z,101025.97
2023-02-16T15:31:35.310Z,101025.59
2023-02-16T15:34:05.739Z,101018.53
2023-02-16T15:36:45.743Z,101019.16
2023-02-16T15:39:38.485Z,101024.41
2023-02-16T15:42:26.878Z,101028.34
2023-02-16T15:44:54.560Z,101032.75
2023-02-16T15:47:28.796Z,101028.59
2023-02-16T15:49:56.501Z,101030.69
2023-02-16T15:52:33.932Z,101030.91
2023-02-16T15:55:09.139Z,101034.81
2023-02-16T15:57:42.214Z,101033.97
2023-02-16T16:00:19.450Z,101032.31
2023-02-16T16:02:50.255Z,101030.22
2023-02-16T16:05:38.519Z,101029.34
2023-02-16T16:08:12.686Z,101033.47
2023-02-16T16:10:46.597Z,101022.25
2023-02-16T16:13:20.042Z,101023.47
2023-02-16T16:15:52.751Z,101031.72
2023-02-16T16:18:41.172Z,101023.59
2023-02-16T16:21:19.604Z,101033.94
2023-02-16T16:23:58.211Z,101024.31
2023-02-16T16:26:27.262Z,101025.50
2023-02-16T16:28:55.854Z,101030.22
2023-02-16T16:31:23.650Z,101029.34
2023-02-16T16:34:08.479Z,101030.56
2023-02-16T16:36:47.612Z,101034.69
2023-02-16T16:39:17.958Z,101039.56
2023-02-16T16:42:06.799Z,101035.69
2023-02-16T16:44:55.018Z,101040.25
2023-02-16T16:47:42.493Z,101042.12
2023-02-16T16:50:14.597Z,101048.88
2023-02-16T16:52:49.669Z,101044.25
2023-02-16T16:55:20.216Z,101056.00
2023-02-16T16:57:49.146Z,101053.53
2023-02-16T17:00:19.025Z,101053.13
2023-02-16T17:02:49.436Z,101045.78
2023-02-16T17:05:17.109Z,101037.44
2023-02-16T17:07:48.972Z,101041.88
2023-02-16T17:10:18.192Z,101043.50
2023-02-16T17:12:47.845Z,101037.59
2023-02-16T17:15:29.681Z,101041.00
2023-02-16T17:17:58.016Z,101038.16
2023-02-16T17:20:25.631Z,101037.53
2023-02-16T17:22:53.380Z,101031.88
2023-02-16T17:25:21.259Z,101038.72
2023-02-16T17:27:51.757Z,101034.66
2023-02-16T17:30:19.587Z,101037.78
2023-02-16T17:32:49.600Z,100996.28
2023-02-16T17:35:19.771Z,101032.47
2023-02-16T17:37:48.591Z,101040.16
2023-02-16T17:40:21.779Z,101033.19
2023-02-16T17:42:50.604Z,101028.00
2023-02-16T17:45:21.091Z,101023.31
2023-02-16T17:47:51.907Z,101023.50
2023-02-16T17:50:20.715Z,101034.94
2023-02-16T17:52:48.396Z,101035.41
2023-02-16T17:55:18.822Z,101028.84
2023-02-16T17:57:46.490Z,101025.09
2023-02-16T18:00:24.450Z,101025.56
2023-02-16T18:02:52.100Z,101026.78
2023-02-16T18:05:19.770Z,101030.19
2023-02-16T18:07:49.484Z,101030.28
2023-02-16T18:10:32.240Z,101030.81
2023-02-16T18:12:59.982Z,101028.69
2023-02-16T18:15:29.873Z,101030.06
2023-02-16T18:17:57.864Z,101022.91
2023-02-16T18:20:28.235Z,101031.50
2023-02-16T18:22:55.985Z,101033.72
2023-02-16T18:25:24.669Z,101024.00
2023-02-16T18:27:52.476Z,101032.06
2023-02-16T18:30:20.606Z,101039.09
2023-02-16T18:32:50.924Z,101035.66
2023-02-16T18:35:19.405Z,101048.06
2023-02-16T18:37:48.206Z,101047.44
2023-02-16T18:40:22.211Z,101044.47
2023-02-16T18:42:49.876Z,101045.19
2023-02-16T18:45:20.129Z,101045.25
2023-02-16T18:47:47.780Z,101044.56
2023-02-16T18:50:15.870Z,101046.28
2023-02-16T18:52:44.944Z,101043.72
2023-02-16T18:55:13.926Z,101045.59
2023-02-16T18:57:43.740Z,101044.56
2023-02-16T19:00:15.093Z,101049.94
2023-02-16T19:02:44.142Z,101047.41
2023-02-16T19:05:12.930Z,101045.31
2023-02-16T19:07:40.768Z,101034.31
2023-02-16T19:10:12.122Z,101049.59
2023-02-16T19:12:41.241Z,101056.66
2023-02-16T19:15:09.759Z,101040.19
2023-02-16T19:17:42.980Z,101047.69
2023-02-16T19:20:14.477Z,101039.16
2023-02-16T19:22:43.848Z,101044.41
2023-02-16T19:25:11.540Z,101035.88
2023-02-16T19:27:42.116Z,101042.81
2023-02-16T19:30:12.558Z,101042.22
2023-02-16T19:32:41.553Z,101040.19
2023-02-16T19:35:10.818Z,101034.47
2023-02-16T19:37:40.917Z,101041.69
2023-02-16T19:40:11.366Z,101043.87
2023-02-16T19:42:42.592Z,101038.38
2023-02-16T19:45:10.418Z,101039.94
2023-02-16T19:47:38.051Z,101046.66
2023-02-16T19:50:06.020Z,101052.75
2023-02-16T19:52:34.015Z,101055.47
2023-02-16T19:55:01.619Z,101054.31
2023-02-16T19:57:29.251Z,101047.81
2023-02-16T19:59:56.876Z,101045.19
2023-02-16T20:02:24.496Z,101047.22
2023-02-16T20:04:54.871Z,101047.63
2023-02-16T20:07:22.448Z,101051.00
2023-02-16T20:09:50.042Z,101053.38
2023-02-16T20:12:17.809Z,101055.22
2023-02-16T20:14:48.144Z,101056.41
2023-02-16T20:17:15.702Z,101048.75
2023-02-16T20:19:43.538Z,101059.94
2023-02-16T20:22:11.195Z,101054.44
2023-02-16T20:24:40.450Z,101058.78
2023-02-16T20:27:08.123Z,101059.66
2023-02-16T20:29:35.757Z,101065.53
2023-02-16T20:32:05.023Z,101065.53
2023-02-16T20:34:33.511Z,101048.28
2023-02-16T20:37:01.177Z,101065.53
2023-02-16T20:39:28.812Z,101063.87
2023-02-16T20:41:58.270Z,101058.88
2023-02-16T20:44:26.981Z,101061.53
2023-02-16T20:46:54.656Z,101049.50
2023-02-16T20:49:24.684Z,101061.53
2023-02-16T20:51:54.752Z,101054.81
2023-02-16T20:54:22.441Z,101052.97
2023-02-16T20:56:50.103Z,101056.50
2023-02-16T20:59:17.787Z,101053.63
2023-02-16T21:01:48.752Z,101053.28
2023-02-16T21:04:19.135Z,101049.75
2023-02-16T21:06:47.241Z,101050.41
2023-02-16T21:09:15.250Z,101047.91
2023-02-16T21:11:46.823Z,101044.88
2023-02-16T21:14:14.687Z,101032.00
2023-02-16T21:16:42.996Z,101032.66
2023-02-16T21:19:22.539Z,101035.66
2023-02-16T21:21:52.455Z,101034.47
2023-02-16T21:24:20.131Z,101031.97
2023-02-16T21:26:47.830Z,101033.13
2023-02-16T21:29:15.856Z,101036.09
2023-02-16T21:31:43.535Z,101040.59
2023-02-16T21:34:11.302Z,101042.59
2023-02-16T21:36:39.276Z,101036.59
2023-02-16T21:39:09.596Z,101039.59
2023-02-16T21:41:36.670Z,101037.91
2023-02-16T21:44:08.826Z,101037.56
2023-02-16T21:46:42.856Z,101033.91
2023-02-16T21:49:13.400Z,101027.22
2023-02-16T21:51:42.475Z,101031.19
2023-02-16T21:54:17.448Z,101040.50
2023-02-16T21:56:48.630Z,101027.44
2023-02-16T21:59:22.626Z,101036.13
2023-02-16T22:01:52.454Z,101037.47
2023-02-16T22:04:22.564Z,101034.13
2023-02-16T22:06:52.100Z,101036.81
2023-02-16T22:09:22.552Z,101034.13
2023-02-16T22:11:51.524Z,101028.97
2023-02-16T22:14:19.766Z,101027.28
2023-02-16T22:16:48.976Z,101029.13
2023-02-16T22:19:19.817Z,101032.47
2023-02-16T22:21:52.413Z,101030.94
2023-02-16T22:24:21.254Z,101032.94
2023-02-16T22:26:50.427Z,101026.09
2023-02-16T22:29:18.742Z,101028.44
2023-02-16T22:31:50.328Z,101025.62
2023-02-16T22:34:23.996Z,101024.78
2023-02-16T22:36:52.077Z,101022.06
2023-02-16T22:39:20.402Z,101010.72
2023-02-16T22:41:51.136Z,101012.87
2023-02-16T22:44:21.406Z,101009.66
2023-02-16T22:46:49.149Z,101008.00
2023-02-16T22:49:16.840Z,101007.16
2023-02-16T22:51:44.550Z,101002.66
2023-02-16T22:54:14.326Z,101010.16
2023-02-16T22:56:42.172Z,101002.81
2023-02-16T22:59:13.830Z,100992.47
2023-02-16T23:01:43.864Z,100999.47
2023-02-16T23:04:17.754Z,101002.31
2023-02-16T23:06:46.104Z,100993.09
2023-02-16T23:09:24.122Z,100998.28
2023-02-16T23:11:51.836Z,101002.94
2023-02-16T23:14:20.836Z,100997.09
2023-02-16T23:16:52.379Z,100998.56
2023-02-16T23:19:23.646Z,100994.50
2023-02-16T23:21:51.396Z,100987.81
2023-02-16T23:24:22.355Z,100988.47
2023-02-16T23:26:50.155Z,100986.41
2023-02-16T23:29:18.057Z,100998.72
2023-02-16T23:31:47.757Z,100990.63
2023-02-16T23:34:16.782Z,100993.97
2023-02-16T23:36:45.490Z,100989.13
2023-02-16T23:39:18.327Z,100985.09
2023-02-16T23:41:46.472Z,100991.56
2023-02-16T23:44:15.252Z,100992.87
2023-02-16T23:46:45.336Z,100997.38
2023-02-16T23:49:12.989Z,100993.19
2023-02-16T23:51:42.731Z,101000.03
2023-02-16T23:54:12.802Z,101002.56
2023-02-16T23:56:43.020Z,100990.69
2023-02-16T23:59:10.702Z,100999.87
